Time;durP1;ratioP1;P1;durP2;ratioP2;P2;SDS_P1;SDS_P2;PMS_P1;PMS_P2;Temp;Humidity;BMP_temperature;BMP_pressure;BME280_temperature;BME280_humidity;BME280_pressure;Samples;Min_cycle;Max_cycle;Signal;HPM_P1;HPM_P2
2021/12/13 00:02:25;;;;;;;;;;;5.10;51.10;;;;;;5097660;28;20019;-73
2021/12/13 00:04:58;;;;;;;;;;;5.10;51.10;;;;;;5098824;28;20478;-74
2021/12/13 00:07:27;;;;;;;;;;;5.10;51.10;;;;;;5096053;28;19931;-77
2021/12/13 00:09:57;;;;;;;;;;;5.10;51.60;;;;;;5092428;28;19971;-73
2021/12/13 00:12:29;;;;;;;;;;;5.10;52.00;;;;;;5095436;28;19920;-74
2021/12/13 00:14:59;;;;;;;;;;;5.20;52.10;;;;;;5089226;27;19977;-74
2021/12/13 00:17:28;;;;;;;;;;;5.10;52.00;;;;;;5099327;27;20176;-73
2021/12/13 00:19:59;;;;;;;;;;;5.00;51.60;;;;;;5098847;28;20014;-74
2021/12/13 00:22:34;;;;;;;;;;;5.00;51.90;;;;;;5098661;28;19924;-74
2021/12/13 00:25:04;;;;;;;;;;;5.10;52.50;;;;;;5102035;27;19923;-74
2021/12/13 00:27:32;;;;;;;;;;;5.10;52.60;;;;;;5098584;28;20545;-74
2021/12/13 00:30:07;;;;;;;;;;;5.00;52.00;;;;;;5096373;28;19954;-73
2021/12/13 00:32:38;;;;;;;;;;;5.00;52.50;;;;;;5096561;28;20325;-73
2021/12/13 00:35:08;;;;;;;;;;;4.90;52.60;;;;;;5090613;27;19923;-76
2021/12/13 00:37:38;;;;;;;;;;;5.10;53.20;;;;;;5097046;27;20023;-76
2021/12/13 00:40:08;;;;;;;;;;;5.00;52.80;;;;;;5093909;28;19926;-70
2021/12/13 00:42:39;;;;;;;;;;;4.90;52.60;;;;;;5094130;27;19920;-73
2021/12/13 00:45:09;;;;;;;;;;;5.00;53.20;;;;;;5091772;28;19919;-70
2021/12/13 00:47:38;;;;;;;;;;;5.00;53.10;;;;;;5090766;27;19962;-73
2021/12/13 00:50:08;;;;;;;;;;;5.00;53.60;;;;;;5094153;27;20018;-73
2021/12/13 00:52:38;;;;;;;;;;;4.90;53.40;;;;;;5092224;28;20298;-71
2021/12/13 00:55:10;;;;;;;;;;;4.90;53.80;;;;;;5092515;28;19959;-70
2021/12/13 00:57:40;;;;;;;;;;;4.90;54.10;;;;;;5089650;28;19923;-70
2021/12/13 01:00:14;;;;;;;;;;;5.00;54.30;;;;;;5097320;27;19963;-73
2021/12/13 01:02:45;;;;;;;;;;;5.10;54.40;;;;;;5098584;28;19920;-73
2021/12/13 01:05:15;;;;;;;;;;;5.00;54.30;;;;;;5097148;28;20367;-73
2021/12/13 01:08:04;;;;;;;;;;;5.00;54.30;;;;;;5099080;28;19924;-73
2021/12/13 01:10:47;;;;;;;;;;;5.00;54.40;;;;;;5104093;28;19937;-73
2021/12/13 01:13:16;;;;;;;;;;;5.10;55.00;;;;;;5097872;27;19924;-72
2021/12/13 01:15:50;;;;;;;;;;;5.10;54.70;;;;;;5093254;28;19924;-72
2021/12/13 01:18:22;;;;;;;;;;;5.00;54.60;;;;;;5092475;28;19958;-70
2021/12/13 01:21:01;;;;;;;;;;;5.10;55.20;;;;;;5097067;28;19926;-71
2021/12/13 01:23:41;;;;;;;;;;;5.10;55.40;;;;;;5093777;28;19957;-72
2021/12/13 01:26:29;;;;;;;;;;;5.10;55.40;;;;;;5101483;28;20037;-72
2021/12/13 01:28:59;;;;;;;;;;;5.10;55.60;;;;;;5102053;28;19934;-72
2021/12/13 01:31:32;;;;;;;;;;;5.10;55.40;;;;;;5071825;28;19928;-72
2021/12/13 01:34:01;;;;;;;;;;;5.10;55.30;;;;;;5101392;27;20003;-72
2021/12/13 01:36:32;;;;;;;;;;;5.10;55.60;;;;;;5102828;28;20370;-73
2021/12/13 01:39:06;;;;;;;;;;;5.10;55.60;;;;;;5098686;28;19927;-72
2021/12/13 01:41:36;;;;;;;;;;;5.10;55.70;;;;;;5099311;27;19962;-72
2021/12/13 01:44:07;;;;;;;;;;;5.10;55.70;;;;;;5101946;28;19919;-73
2021/12/13 01:46:38;;;;;;;;;;;5.10;55.60;;;;;;5104337;28;19967;-72
2021/12/13 01:49:07;;;;;;;;;;;5.10;55.50;;;;;;5082308;28;19923;-73
2021/12/13 01:51:35;;;;;;;;;;;5.10;55.90;;;;;;5085164;28;19938;-72
2021/12/13 01:54:05;;;;;;;;;;;5.10;55.80;;;;;;5098126;28;19919;-72
2021/12/13 01:56:44;;;;;;;;;;;5.10;55.80;;;;;;5103176;28;19926;-72
2021/12/13 01:59:28;;;;;;;;;;;5.10;55.50;;;;;;5097177;27;20107;-72
2021/12/13 02:01:59;;;;;;;;;;;5.10;56.80;;;;;;5102208;28;19949;-72
2021/12/13 02:04:27;;;;;;;;;;;5.10;56.10;;;;;;5102145;28;19926;-72
2021/12/13 02:07:00;;;;;;;;;;;5.10;56.10;;;;;;5101890;28;19919;-72
2021/12/13 02:09:29;;;;;;;;;;;5.10;56.20;;;;;;5096169;28;19955;-72
2021/12/13 02:11:58;;;;;;;;;;;5.10;56.20;;;;;;5102378;28;19928;-72
2021/12/13 02:14:30;;;;;;;;;;;5.00;56.20;;;;;;5100739;28;19930;-72
2021/12/13 02:17:09;;;;;;;;;;;5.10;56.40;;;;;;5105506;28;20010;-72
2021/12/13 02:19:43;;;;;;;;;;;5.10;56.80;;;;;;5104941;27;19966;-72
2021/12/13 02:22:30;;;;;;;;;;;5.10;56.60;;;;;;5106376;27;19920;-72
2021/12/13 02:25:00;;;;;;;;;;;5.10;56.80;;;;;;5103016;27;19928;-72
2021/12/13 02:27:30;;;;;;;;;;;5.10;56.90;;;;;;5105435;28;19998;-73
2021/12/13 02:30:00;;;;;;;;;;;5.10;57.00;;;;;;5082221;28;20014;-73
2021/12/13 02:32:35;;;;;;;;;;;5.10;57.00;;;;;;5102666;27;20002;-72
2021/12/13 02:35:05;;;;;;;;;;;5.20;57.30;;;;;;5105979;27;20487;-72
2021/12/13 02:37:34;;;;;;;;;;;5.10;57.10;;;;;;5102720;28;20014;-72
2021/12/13 02:40:05;;;;;;;;;;;5.10;57.20;;;;;;5100921;27;20015;-72
2021/12/13 02:42:33;;;;;;;;;;;5.10;57.20;;;;;;5107030;28;19939;-72
2021/12/13 02:45:04;;;;;;;;;;;5.10;57.20;;;;;;5102060;27;19919;-72
2021/12/13 02:47:35;;;;;;;;;;;5.10;57.00;;;;;;5105230;27;19930;-72
2021/12/13 02:50:04;;;;;;;;;;;5.10;57.40;;;;;;5107313;28;19972;-72
2021/12/13 02:52:32;;;;;;;;;;;5.10;57.30;;;;;;5106347;27;19955;-72
2021/12/13 02:55:03;;;;;;;;;;;5.20;57.50;;;;;;5103684;27;19958;-72
2021/12/13 02:57:33;;;;;;;;;;;5.10;57.30;;;;;;5105447;27;20381;-72
2021/12/13 03:00:07;;;;;;;;;;;5.10;57.50;;;;;;5106124;27;19920;-72
2021/12/13 03:02:40;;;;;;;;;;;5.10;57.50;;;;;;5105472;28;20362;-72
2021/12/13 03:05:11;;;;;;;;;;;5.10;57.60;;;;;;5104906;28;20390;-72
2021/12/13 03:07:42;;;;;;;;;;;5.10;57.80;;;;;;5103445;28;19963;-72
2021/12/13 03:10:15;;;;;;;;;;;5.10;57.70;;;;;;5102240;27;20711;-72
2021/12/13 03:12:43;;;;;;;;;;;5.20;57.90;;;;;;5087219;28;20007;-72
2021/12/13 03:15:14;;;;;;;;;;;5.10;57.90;;;;;;5106405;27;19939;-72
2021/12/13 03:17:44;;;;;;;;;;;5.20;58.00;;;;;;5104463;27;19926;-72
2021/12/13 03:20:21;;;;;;;;;;;5.10;57.90;;;;;;5100714;28;20341;-72
2021/12/13 03:23:04;;;;;;;;;;;5.20;58.20;;;;;;5103889;28;20018;-72
2021/12/13 03:25:38;;;;;;;;;;;5.20;58.20;;;;;;5101305;28;20010;-72
2021/12/13 03:28:19;;;;;;;;;;;5.20;58.30;;;;;;5083612;28;20125;-72
2021/12/13 03:30:50;;;;;;;;;;;5.20;58.30;;;;;;5099203;27;20049;-72
2021/12/13 03:33:30;;;;;;;;;;;5.20;58.30;;;;;;5101961;27;19930;-72
2021/12/13 03:35:59;;;;;;;;;;;5.30;58.40;;;;;;5101704;28;20786;-72
2021/12/13 03:38:29;;;;;;;;;;;5.20;58.30;;;;;;5102172;28;20001;-72
2021/12/13 03:41:01;;;;;;;;;;;5.30;58.40;;;;;;5098963;27;19919;-72
2021/12/13 03:43:32;;;;;;;;;;;5.30;58.40;;;;;;5100674;28;19928;-72
2021/12/13 03:46:02;;;;;;;;;;;5.30;58.40;;;;;;5100406;28;19982;-72
2021/12/13 03:48:31;;;;;;;;;;;5.30;58.40;;;;;;5101905;28;20014;-72
2021/12/13 03:51:00;;;;;;;;;;;5.30;58.40;;;;;;5103653;28;20035;-72
2021/12/13 03:53:29;;;;;;;;;;;5.30;58.40;;;;;;5103819;28;19926;-72
2021/12/13 03:56:02;;;;;;;;;;;5.20;58.30;;;;;;5104292;28;19962;-72
2021/12/13 03:58:33;;;;;;;;;;;5.30;58.40;;;;;;5102505;27;19924;-72
2021/12/13 04:01:07;;;;;;;;;;;5.30;58.40;;;;;;5088286;27;20029;-72
2021/12/13 04:03:35;;;;;;;;;;;5.30;58.40;;;;;;5105384;28;20117;-72
2021/12/13 04:06:04;;;;;;;;;;;5.30;58.40;;;;;;5103656;27;19936;-72
2021/12/13 04:08:32;;;;;;;;;;;5.40;58.50;;;;;;5102424;27;19919;-72
2021/12/13 04:11:02;;;;;;;;;;;5.30;58.40;;;;;;5104007;27;19929;-72
2021/12/13 04:13:32;;;;;;;;;;;5.30;58.30;;;;;;5100037;27;19959;-72
2021/12/13 04:16:09;;;;;;;;;;;5.30;58.40;;;;;;5103738;28;19931;-72
2021/12/13 04:19:06;;;;;;;;;;;5.40;58.50;;;;;;5100243;28;19931;-73
2021/12/13 04:21:39;;;;;;;;;;;5.40;58.50;;;;;;5104230;28;19931;-72
2021/12/13 04:24:09;;;;;;;;;;;5.40;58.50;;;;;;5104178;28;19919;-72
2021/12/13 04:26:40;;;;;;;;;;;5.30;58.30;;;;;;5105992;27;20394;-72
2021/12/13 04:29:12;;;;;;;;;;;5.30;58.40;;;;;;5100832;28;20018;-68
2021/12/13 04:31:41;;;;;;;;;;;5.30;58.40;;;;;;5104260;28;20362;-71
2021/12/13 04:34:09;;;;;;;;;;;5.40;58.50;;;;;;5101511;28;19923;-71
2021/12/13 04:36:39;;;;;;;;;;;5.40;58.50;;;;;;5071451;28;19947;-72
2021/12/13 04:39:10;;;;;;;;;;;5.40;59.00;;;;;;5099022;27;19927;-71
2021/12/13 04:41:40;;;;;;;;;;;5.40;58.40;;;;;;5099504;28;20383;-71
2021/12/13 04:44:09;;;;;;;;;;;5.30;58.30;;;;;;5100757;28;19927;-71
2021/12/13 04:46:39;;;;;;;;;;;5.30;58.30;;;;;;5105510;27;19927;-71
2021/12/13 04:49:08;;;;;;;;;;;5.40;58.40;;;;;;5098294;27;20298;-72
2021/12/13 04:51:40;;;;;;;;;;;5.40;58.50;;;;;;5103250;27;19962;-71
2021/12/13 04:54:10;;;;;;;;;;;5.50;58.50;;;;;;5100624;27;19967;-71
2021/12/13 04:56:39;;;;;;;;;;;5.40;58.40;;;;;;5102106;28;19943;-72
2021/12/13 04:59:08;;;;;;;;;;;5.40;58.30;;;;;;5099196;27;20010;-71
2021/12/13 05:01:37;;;;;;;;;;;5.40;58.40;;;;;;5085441;28;20014;-72
2021/12/13 05:04:06;;;;;;;;;;;5.40;58.50;;;;;;5098046;28;19919;-72
2021/12/13 05:06:35;;;;;;;;;;;5.40;58.40;;;;;;5099593;28;19920;-72
2021/12/13 05:09:05;;;;;;;;;;;5.40;58.40;;;;;;5086419;28;19952;-72
2021/12/13 05:11:35;;;;;;;;;;;5.40;58.20;;;;;;5100533;28;21223;-73
2021/12/13 05:14:05;;;;;;;;;;;5.40;58.20;;;;;;5094079;28;19920;-72
2021/12/13 05:16:39;;;;;;;;;;;5.40;58.10;;;;;;5099202;28;20401;-72
2021/12/13 05:19:07;;;;;;;;;;;5.40;58.00;;;;;;5077174;28;19919;-72
2021/12/13 05:21:37;;;;;;;;;;;5.30;57.60;;;;;;5102730;28;19924;-73
2021/12/13 05:24:12;;;;;;;;;;;5.30;57.80;;;;;;5098827;28;19992;-73
2021/12/13 05:26:44;;;;;;;;;;;5.40;58.00;;;;;;5102700;28;20375;-73
2021/12/13 05:29:23;;;;;;;;;;;5.40;57.90;;;;;;5101815;27;20352;-72
2021/12/13 05:31:52;;;;;;;;;;;5.40;57.60;;;;;;5099893;28;19930;-74
2021/12/13 05:34:21;;;;;;;;;;;5.40;57.90;;;;;;5105615;27;20007;-72
2021/12/13 05:36:55;;;;;;;;;;;5.40;57.60;;;;;;5085150;28;19941;-72
2021/12/13 05:39:23;;;;;;;;;;;5.40;57.80;;;;;;5082220;28;19977;-73
2021/12/13 05:41:52;;;;;;;;;;;5.40;57.70;;;;;;5101761;28;19926;-73
2021/12/13 05:44:25;;;;;;;;;;;5.40;57.50;;;;;;5101862;28;20423;-73
2021/12/13 05:46:54;;;;;;;;;;;5.40;57.60;;;;;;5103294;27;19919;-72
2021/12/13 05:49:23;;;;;;;;;;;5.40;57.60;;;;;;5099505;28;19925;-73
2021/12/13 05:51:53;;;;;;;;;;;5.40;57.50;;;;;;5096370;28;20353;-72
2021/12/13 05:54:23;;;;;;;;;;;5.40;57.50;;;;;;5101360;28;19928;-73
2021/12/13 05:56:53;;;;;;;;;;;5.40;57.60;;;;;;5101291;28;20372;-72
2021/12/13 05:59:22;;;;;;;;;;;5.40;57.30;;;;;;5097262;28;20003;-72
2021/12/13 06:01:58;;;;;;;;;;;5.40;57.30;;;;;;5099487;28;19966;-72
2021/12/13 06:04:32;;;;;;;;;;;5.40;57.20;;;;;;5100505;28;19927;-72
2021/12/13 06:07:01;;;;;;;;;;;5.50;57.40;;;;;;5103746;28;19980;-72
2021/12/13 06:09:52;;;;;;;;;;;5.50;57.30;;;;;;5097557;28;19931;-71
2021/12/13 06:12:33;;;;;;;;;;;5.50;57.30;;;;;;5084257;28;19920;-71
2021/12/13 06:15:20;;;;;;;;;;;5.50;57.20;;;;;;5100861;28;20332;-71
2021/12/13 06:17:51;;;;;;;;;;;5.40;57.20;;;;;;5099056;28;19933;-72
2021/12/13 06:20:22;;;;;;;;;;;5.50;57.30;;;;;;5083521;28;20548;-73
2021/12/13 06:22:50;;;;;;;;;;;5.50;57.30;;;;;;5099322;28;19926;-73
2021/12/13 06:25:20;;;;;;;;;;;5.50;57.30;;;;;;5101079;28;20027;-73
2021/12/13 06:27:49;;;;;;;;;;;5.50;57.20;;;;;;5099086;28;19985;-74
2021/12/13 06:30:20;;;;;;;;;;;5.50;57.40;;;;;;5101386;28;20002;-73
2021/12/13 06:32:54;;;;;;;;;;;5.60;57.70;;;;;;5083769;28;19963;-72
2021/12/13 06:35:31;;;;;;;;;;;5.60;57.50;;;;;;5099116;28;19920;-73
2021/12/13 06:38:00;;;;;;;;;;;5.60;57.30;;;;;;5093493;28;20643;-72
2021/12/13 06:40:31;;;;;;;;;;;5.60;57.50;;;;;;5102387;28;20106;-73
2021/12/13 06:43:00;;;;;;;;;;;5.60;57.40;;;;;;5082384;28;20357;-72
2021/12/13 06:45:31;;;;;;;;;;;5.60;57.10;;;;;;5099123;28;20002;-72
2021/12/13 06:48:02;;;;;;;;;;;5.70;57.40;;;;;;5102482;28;19956;-73
2021/12/13 06:50:31;;;;;;;;;;;5.60;56.80;;;;;;5099454;28;19934;-73
2021/12/13 06:53:13;;;;;;;;;;;5.60;57.00;;;;;;5099491;28;20033;-72
2021/12/13 06:55:41;;;;;;;;;;;5.70;57.50;;;;;;5097635;28;19920;-73
2021/12/13 06:58:14;;;;;;;;;;;5.60;57.30;;;;;;5098225;28;19923;-73
2021/12/13 07:00:42;;;;;;;;;;;5.60;56.90;;;;;;5098887;28;19949;-73
2021/12/13 07:03:16;;;;;;;;;;;5.60;57.10;;;;;;5101845;28;19924;-73
2021/12/13 07:05:45;;;;;;;;;;;5.60;57.20;;;;;;5083461;28;20014;-74
2021/12/13 07:08:18;;;;;;;;;;;5.60;57.10;;;;;;5105217;27;20026;-73
2021/12/13 07:10:47;;;;;;;;;;;5.70;57.10;;;;;;5105400;27;19919;-71
2021/12/13 07:13:22;;;;;;;;;;;5.70;56.90;;;;;;5101678;27;20014;-73
2021/12/13 07:15:55;;;;;;;;;;;5.60;56.80;;;;;;5108665;27;20366;-73
2021/12/13 07:18:29;;;;;;;;;;;5.60;56.80;;;;;;5101494;28;19926;-74
2021/12/13 07:21:02;;;;;;;;;;;5.70;57.00;;;;;;5101205;27;20034;-72
2021/12/13 07:23:50;;;;;;;;;;;5.70;56.80;;;;;;5104515;28;19955;-73
2021/12/13 07:26:28;;;;;;;;;;;5.70;56.60;;;;;;5103237;28;19928;-72
2021/12/13 07:28:56;;;;;;;;;;;5.70;56.60;;;;;;5096716;28;19929;-73
2021/12/13 07:31:24;;;;;;;;;;;5.70;56.50;;;;;;5099008;28;20248;-73
2021/12/13 07:33:53;;;;;;;;;;;5.70;56.50;;;;;;5103424;27;19981;-74
2021/12/13 07:36:23;;;;;;;;;;;5.70;56.50;;;;;;5104659;28;20010;-73
2021/12/13 07:38:52;;;;;;;;;;;5.80;56.40;;;;;;5105596;27;20295;-74
2021/12/13 07:41:21;;;;;;;;;;;5.70;55.80;;;;;;5081226;28;20004;-73
2021/12/13 07:43:49;;;;;;;;;;;5.80;56.10;;;;;;5097681;28;19935;-73
2021/12/13 07:46:27;;;;;;;;;;;5.80;55.80;;;;;;5107949;27;19924;-73
2021/12/13 07:48:59;;;;;;;;;;;5.80;55.70;;;;;;5099512;28;19924;-74
2021/12/13 07:51:28;;;;;;;;;;;5.80;55.70;;;;;;5106771;27;19965;-73
2021/12/13 07:54:01;;;;;;;;;;;5.80;55.70;;;;;;5101790;28;19923;-72
2021/12/13 07:56:41;;;;;;;;;;;5.80;55.50;;;;;;5100231;28;19928;-73
2021/12/13 07:59:11;;;;;;;;;;;5.80;55.40;;;;;;5103721;28;19919;-73
2021/12/13 08:01:43;;;;;;;;;;;5.90;55.10;;;;;;5103345;28;19962;-73
2021/12/13 08:04:14;;;;;;;;;;;5.80;55.00;;;;;;5103682;27;19947;-72
2021/12/13 08:06:44;;;;;;;;;;;5.80;55.00;;;;;;5104275;28;20248;-73
2021/12/13 08:09:13;;;;;;;;;;;5.90;55.10;;;;;;5105289;27;19981;-74
2021/12/13 08:11:43;;;;;;;;;;;5.90;55.10;;;;;;5104743;27;19920;-73
2021/12/13 08:14:12;;;;;;;;;;;6.00;55.10;;;;;;5101738;27;19920;-73
2021/12/13 08:16:41;;;;;;;;;;;6.00;55.10;;;;;;5082784;28;20023;-73
2021/12/13 08:19:17;;;;;;;;;;;6.00;55.00;;;;;;5099152;27;19969;-74
2021/12/13 08:21:48;;;;;;;;;;;6.10;54.80;;;;;;5103473;28;20015;-74
2021/12/13 08:24:19;;;;;;;;;;;6.10;54.40;;;;;;5099492;27;19920;-72
2021/12/13 08:26:54;;;;;;;;;;;6.20;54.20;;;;;;5104261;27;19919;-72
2021/12/13 08:29:27;;;;;;;;;;;6.20;54.00;;;;;;5099042;28;19939;-74
2021/12/13 08:31:57;;;;;;;;;;;6.30;53.80;;;;;;5100179;28;20371;-73
2021/12/13 08:34:28;;;;;;;;;;;6.40;53.10;;;;;;5083723;28;19926;-72
2021/12/13 08:36:56;;;;;;;;;;;6.40;52.60;;;;;;5102146;28;19920;-74
2021/12/13 08:39:25;;;;;;;;;;;6.40;51.60;;;;;;5097949;28;19919;-73
2021/12/13 08:41:56;;;;;;;;;;;6.50;51.60;;;;;;5104647;28;19934;-73
2021/12/13 08:44:29;;;;;;;;;;;6.50;51.50;;;;;;5104805;28;20003;-73
2021/12/13 08:46:59;;;;;;;;;;;6.50;51.10;;;;;;5103907;27;19930;-74
2021/12/13 08:49:36;;;;;;;;;;;6.50;50.30;;;;;;5099677;28;20012;-74
2021/12/13 08:52:09;;;;;;;;;;;6.50;50.40;;;;;;5072956;27;19957;-73
2021/12/13 08:54:42;;;;;;;;;;;6.50;50.60;;;;;;5101007;27;19923;-73
2021/12/13 08:57:11;;;;;;;;;;;6.60;50.40;;;;;;5104429;28;19920;-73
2021/12/13 08:59:48;;;;;;;;;;;6.60;50.00;;;;;;5103925;27;19980;-73
2021/12/13 09:02:16;;;;;;;;;;;6.60;49.40;;;;;;5081756;28;19920;-74
2021/12/13 09:04:54;;;;;;;;;;;6.70;49.20;;;;;;5102508;27;20436;-74
2021/12/13 09:07:23;;;;;;;;;;;6.60;47.20;;;;;;5083551;28;20363;-73
2021/12/13 09:09:53;;;;;;;;;;;6.70;48.00;;;;;;5095846;28;20407;-75
2021/12/13 09:12:27;;;;;;;;;;;6.80;47.60;;;;;;5100858;27;19928;-74
2021/12/13 09:14:57;;;;;;;;;;;6.70;47.70;;;;;;5103026;27;20022;-74
2021/12/13 09:17:26;;;;;;;;;;;6.80;46.80;;;;;;5099711;28;19919;-75
2021/12/13 09:19:57;;;;;;;;;;;6.80;47.30;;;;;;5098842;28;20327;-73
2021/12/13 09:22:27;;;;;;;;;;;6.80;47.50;;;;;;5106508;27;20003;-74
2021/12/13 09:24:57;;;;;;;;;;;6.90;47.30;;;;;;5099469;27;20405;-74
2021/12/13 09:27:32;;;;;;;;;;;6.80;46.50;;;;;;5083750;28;20010;-76
2021/12/13 09:30:02;;;;;;;;;;;6.90;46.60;;;;;;5097897;28;19924;-74
2021/12/13 09:32:32;;;;;;;;;;;6.90;46.60;;;;;;5100630;28;20393;-73
2021/12/13 09:35:15;;;;;;;;;;;7.00;46.10;;;;;;5106894;27;19960;-74
2021/12/13 09:37:46;;;;;;;;;;;7.10;46.10;;;;;;5098197;28;19998;-75
2021/12/13 09:40:16;;;;;;;;;;;7.10;45.30;;;;;;5093615;28;19928;-74
2021/12/13 09:42:45;;;;;;;;;;;7.10;44.00;;;;;;5102795;27;20068;-75
2021/12/13 09:45:14;;;;;;;;;;;7.20;45.40;;;;;;5104245;27;20480;-74
2021/12/13 09:47:43;;;;;;;;;;;7.30;45.60;;;;;;5100192;28;20390;-74
2021/12/13 09:50:13;;;;;;;;;;;7.40;45.70;;;;;;5098638;28;20490;-74
2021/12/13 09:52:42;;;;;;;;;;;7.30;44.10;;;;;;5097853;28;20397;-74
2021/12/13 09:55:14;;;;;;;;;;;7.30;44.50;;;;;;5099803;27;19920;-74
2021/12/13 09:57:49;;;;;;;;;;;7.30;46.80;;;;;;5097136;28;19947;-74
2021/12/13 10:00:18;;;;;;;;;;;7.20;46.70;;;;;;5100143;28;19924;-74
2021/12/13 10:02:48;;;;;;;;;;;7.20;48.10;;;;;;5104143;28;20036;-74
2021/12/13 10:05:20;;;;;;;;;;;7.20;49.30;;;;;;5099530;28;19930;-74
2021/12/13 10:07:51;;;;;;;;;;;7.30;50.40;;;;;;5097418;28;20014;-76
2021/12/13 10:10:22;;;;;;;;;;;7.20;50.60;;;;;;5098621;28;20264;-74
2021/12/13 10:12:54;;;;;;;;;;;7.40;51.10;;;;;;5099759;28;20481;-74
2021/12/13 10:15:25;;;;;;;;;;;7.20;49.90;;;;;;5081552;28;19928;-74
2021/12/13 10:17:56;;;;;;;;;;;7.40;51.40;;;;;;5081005;28;20054;-74
2021/12/13 10:20:25;;;;;;;;;;;7.30;50.40;;;;;;5103144;28;20279;-74
2021/12/13 10:22:54;;;;;;;;;;;7.30;51.20;;;;;;5098029;28;20368;-74
2021/12/13 10:25:25;;;;;;;;;;;7.30;51.80;;;;;;5100838;28;19927;-75
2021/12/13 10:27:53;;;;;;;;;;;7.30;51.60;;;;;;5101464;28;20438;-74
2021/12/13 10:30:22;;;;;;;;;;;7.40;52.10;;;;;;5099052;28;19928;-73
2021/12/13 10:32:50;;;;;;;;;;;7.50;52.30;;;;;;5096810;28;19919;-73
2021/12/13 10:35:21;;;;;;;;;;;7.50;51.20;;;;;;5100050;28;20296;-75
2021/12/13 10:37:51;;;;;;;;;;;7.50;52.30;;;;;;5098429;27;19928;-74
2021/12/13 10:40:23;;;;;;;;;;;7.40;52.10;;;;;;5100429;28;20275;-74
2021/12/13 10:42:54;;;;;;;;;;;7.40;52.30;;;;;;5104587;27;20373;-74
2021/12/13 10:45:23;;;;;;;;;;;7.50;52.50;;;;;;5107257;27;19973;-74
2021/12/13 10:47:53;;;;;;;;;;;7.50;52.40;;;;;;5101040;28;19927;-75
2021/12/13 10:50:23;;;;;;;;;;;7.50;52.90;;;;;;5104129;27;19931;-74
2021/12/13 10:52:53;;;;;;;;;;;7.60;53.00;;;;;;5103267;28;20228;-74
2021/12/13 10:55:23;;;;;;;;;;;7.60;52.50;;;;;;5106537;28;20228;-73
2021/12/13 10:57:54;;;;;;;;;;;7.70;52.60;;;;;;5102860;28;20035;-74
2021/12/13 11:00:28;;;;;;;;;;;7.80;52.90;;;;;;5104262;27;19923;-74
2021/12/13 11:02:59;;;;;;;;;;;7.70;52.50;;;;;;5100416;28;20022;-74
2021/12/13 11:05:28;;;;;;;;;;;7.80;53.20;;;;;;5103256;27;19981;-73
2021/12/13 11:07:56;;;;;;;;;;;7.70;52.60;;;;;;5101424;28;19974;-72
2021/12/13 11:10:26;;;;;;;;;;;7.80;52.70;;;;;;5104797;28;19999;-72
2021/12/13 11:13:15;;;;;;;;;;;7.90;52.70;;;;;;5083289;28;19978;-73
2021/12/13 11:15:44;;;;;;;;;;;8.00;52.10;;;;;;5101710;28;19930;-73
2021/12/13 11:18:14;;;;;;;;;;;8.00;50.20;;;;;;5100099;28;19928;-73
2021/12/13 11:20:43;;;;;;;;;;;7.90;49.90;;;;;;5103487;27;20034;-73
2021/12/13 11:23:12;;;;;;;;;;;8.00;50.50;;;;;;5104449;27;19928;-74
2021/12/13 11:25:41;;;;;;;;;;;8.00;49.30;;;;;;5105789;27;20442;-73
2021/12/13 11:28:09;;;;;;;;;;;8.00;48.40;;;;;;5100230;28;20024;-73
2021/12/13 11:30:43;;;;;;;;;;;8.20;49.00;;;;;;5099799;27;19930;-72
2021/12/13 11:33:42;;;;;;;;;;;8.10;46.80;;;;;;5099221;28;20663;-72
2021/12/13 11:36:26;;;;;;;;;;;8.20;48.10;;;;;;5103451;28;20565;-73
2021/12/13 11:39:09;;;;;;;;;;;8.40;47.40;;;;;;5102915;28;19977;-73
2021/12/13 11:41:47;;;;;;;;;;;8.30;46.10;;;;;;5103842;28;19920;-73
2021/12/13 11:44:23;;;;;;;;;;;8.20;45.40;;;;;;5100431;28;19980;-73
2021/12/13 11:47:09;;;;;;;;;;;8.10;46.00;;;;;;5105493;28;19927;-72
2021/12/13 11:49:46;;;;;;;;;;;8.10;47.50;;;;;;5099179;28;19954;-72
2021/12/13 11:52:34;;;;;;;;;;;8.20;47.30;;;;;;5084009;28;20451;-73
2021/12/13 11:55:14;;;;;;;;;;;8.30;46.00;;;;;;5102025;28;20019;-72
2021/12/13 11:58:01;;;;;;;;;;;8.20;45.70;;;;;;5086554;28;19920;-73
2021/12/13 12:00:36;;;;;;;;;;;8.10;45.80;;;;;;5105011;27;19923;-73
2021/12/13 12:03:20;;;;;;;;;;;8.20;47.30;;;;;;5103504;27;19928;-73
2021/12/13 12:06:16;;;;;;;;;;;8.30;47.00;;;;;;5101866;27;19950;-73
2021/12/13 12:08:59;;;;;;;;;;;8.30;45.00;;;;;;5091361;28;20370;-75
2021/12/13 12:11:44;;;;;;;;;;;8.40;45.00;;;;;;5092545;28;20031;-73
2021/12/13 12:14:12;;;;;;;;;;;8.20;44.90;;;;;;5100047;28;19919;-73
2021/12/13 12:16:42;;;;;;;;;;;8.10;44.80;;;;;;5094685;28;20014;-72
2021/12/13 12:19:13;;;;;;;;;;;8.30;47.10;;;;;;5075286;28;19967;-73
2021/12/13 12:21:50;;;;;;;;;;;8.30;46.40;;;;;;5087158;28;20221;-74
2021/12/13 12:24:19;;;;;;;;;;;8.40;46.20;;;;;;5100473;28;20385;-73
2021/12/13 12:26:50;;;;;;;;;;;8.30;46.70;;;;;;5097071;28;19971;-74
2021/12/13 12:29:19;;;;;;;;;;;8.30;45.90;;;;;;5091527;28;20045;-74
2021/12/13 12:31:48;;;;;;;;;;;8.40;46.50;;;;;;5100179;28;19927;-75
2021/12/13 12:34:20;;;;;;;;;;;8.40;46.00;;;;;;5095474;28;20461;-75
2021/12/13 12:37:09;;;;;;;;;;;8.30;44.90;;;;;;5098702;28;20310;-73
2021/12/13 12:39:57;;;;;;;;;;;8.10;46.50;;;;;;5082295;28;19920;-73
2021/12/13 12:42:27;;;;;;;;;;;8.10;48.30;;;;;;5101457;28;19928;-75
2021/12/13 12:45:01;;;;;;;;;;;8.20;48.70;;;;;;5097575;28;19923;-75
2021/12/13 12:47:55;;;;;;;;;;;8.10;48.50;;;;;;5090756;28;19967;-72
2021/12/13 12:50:27;;;;;;;;;;;8.10;49.90;;;;;;5096486;28;19931;-72
2021/12/13 12:52:56;;;;;;;;;;;8.20;50.70;;;;;;5098823;28;20003;-73
2021/12/13 12:55:25;;;;;;;;;;;8.10;50.60;;;;;;5101748;28;20283;-74
2021/12/13 12:57:53;;;;;;;;;;;8.20;49.70;;;;;;5097225;27;20621;-74
2021/12/13 13:00:21;;;;;;;;;;;8.30;49.50;;;;;;5094324;27;20790;-75
2021/12/13 13:02:50;;;;;;;;;;;8.30;48.70;;;;;;5095705;28;20019;-74
2021/12/13 13:05:22;;;;;;;;;;;8.30;47.10;;;;;;5106113;27;19966;-76
2021/12/13 13:07:52;;;;;;;;;;;8.30;46.40;;;;;;5099137;28;19927;-74
2021/12/13 13:10:22;;;;;;;;;;;8.30;46.50;;;;;;5079528;27;19923;-73
2021/12/13 13:12:51;;;;;;;;;;;8.30;44.90;;;;;;5090086;28;20395;-74
2021/12/13 13:15:21;;;;;;;;;;;8.30;44.90;;;;;;5089183;28;19928;-74
2021/12/13 13:17:51;;;;;;;;;;;8.30;44.90;;;;;;5099103;28;20026;-74
2021/12/13 13:20:21;;;;;;;;;;;8.40;45.10;;;;;;5096934;27;19934;-75
2021/12/13 13:22:52;;;;;;;;;;;8.40;44.90;;;;;;5084414;28;19927;-74
2021/12/13 13:25:31;;;;;;;;;;;8.50;42.50;;;;;;5084923;28;19931;-73
2021/12/13 13:28:00;;;;;;;;;;;8.30;41.30;;;;;;5097952;28;20038;-74
2021/12/13 13:30:33;;;;;;;;;;;8.40;42.80;;;;;;5103450;27;20007;-74
2021/12/13 13:33:01;;;;;;;;;;;8.40;41.80;;;;;;5101600;28;19928;-74
2021/12/13 13:35:29;;;;;;;;;;;8.30;43.60;;;;;;5098858;28;19955;-73
2021/12/13 13:38:04;;;;;;;;;;;8.30;44.60;;;;;;5081710;28;19938;-74
2021/12/13 13:40:37;;;;;;;;;;;8.10;44.90;;;;;;5100676;28;19928;-75
2021/12/13 13:43:06;;;;;;;;;;;8.00;45.80;;;;;;5099348;28;19981;-73
2021/12/13 13:45:35;;;;;;;;;;;8.10;46.10;;;;;;5103482;28;19919;-73
2021/12/13 13:48:06;;;;;;;;;;;8.10;47.00;;;;;;5084334;28;19966;-74
2021/12/13 13:50:36;;;;;;;;;;;8.10;46.60;;;;;;5102007;27;19966;-73
2021/12/13 13:53:13;;;;;;;;;;;8.00;46.50;;;;;;5099915;28;20353;-72
2021/12/13 13:55:42;;;;;;;;;;;8.00;47.10;;;;;;5097259;28;19920;-74
2021/12/13 13:58:16;;;;;;;;;;;8.00;47.10;;;;;;5099594;28;19924;-74
2021/12/13 14:00:46;;;;;;;;;;;7.90;47.30;;;;;;5100475;28;21588;-74
2021/12/13 14:03:14;;;;;;;;;;;7.90;47.60;;;;;;5078879;28;20370;-73
2021/12/13 14:05:44;;;;;;;;;;;7.90;47.90;;;;;;5104294;28;20367;-73
2021/12/13 14:08:19;;;;;;;;;;;7.90;47.80;;;;;;5096176;28;19919;-73
2021/12/13 14:10:47;;;;;;;;;;;7.90;47.60;;;;;;5100294;28;19928;-73
2021/12/13 14:13:16;;;;;;;;;;;7.90;47.00;;;;;;5099439;28;20007;-74
2021/12/13 14:15:46;;;;;;;;;;;7.90;47.20;;;;;;5105185;28;20522;-75
2021/12/13 14:18:16;;;;;;;;;;;8.00;47.20;;;;;;5098258;28;19923;-74
2021/12/13 14:20:46;;;;;;;;;;;8.00;47.00;;;;;;5099623;28;20006;-74
2021/12/13 14:23:20;;;;;;;;;;;8.00;46.80;;;;;;5064893;28;19934;-72
2021/12/13 14:25:53;;;;;;;;;;;8.00;46.80;;;;;;5101565;28;19920;-72
2021/12/13 14:28:23;;;;;;;;;;;8.00;47.40;;;;;;5098733;28;20007;-72
2021/12/13 14:30:52;;;;;;;;;;;7.90;47.10;;;;;;5099355;28;19932;-73
2021/12/13 14:33:22;;;;;;;;;;;8.00;47.80;;;;;;5066997;28;20015;-74
2021/12/13 14:35:59;;;;;;;;;;;8.10;47.80;;;;;;5084584;28;19981;-73
2021/12/13 14:38:29;;;;;;;;;;;8.10;47.40;;;;;;5094909;28;20011;-73
2021/12/13 14:40:58;;;;;;;;;;;7.90;47.60;;;;;;5078470;28;20345;-74
2021/12/13 14:43:27;;;;;;;;;;;8.00;48.50;;;;;;5099178;28;19923;-73
2021/12/13 14:45:57;;;;;;;;;;;7.90;48.70;;;;;;5099935;28;20375;-73
2021/12/13 14:48:26;;;;;;;;;;;8.00;49.70;;;;;;5096245;28;19930;-75
2021/12/13 14:50:57;;;;;;;;;;;8.00;49.30;;;;;;5105416;28;19987;-75
2021/12/13 14:53:27;;;;;;;;;;;8.00;49.20;;;;;;5100716;28;20007;-73
2021/12/13 14:55:58;;;;;;;;;;;8.10;49.30;;;;;;5101763;28;19927;-75
2021/12/13 14:58:32;;;;;;;;;;;8.00;49.30;;;;;;5093916;28;19939;-73
2021/12/13 15:01:02;;;;;;;;;;;8.00;49.50;;;;;;5099643;28;20382;-74